Destinations Venice Marco Polo Airport

Venice Marco Polo Airport (LIPZ / VCE)

Flights to Venice Marco Polo Airport

Flight number From ETE Dispatch
SPY-2456 EGPH Edinburgh Airport 02:40
SPY-2498 EGPH Edinburgh Airport 02:40

Flights from Venice Marco Polo Airport

Flight number To ETE Dispatch
SPY-2457 EGPH Edinburgh Airport 02:40
SPY-2499 EGPH Edinburgh Airport 02:40
About

Venice Marco Polo Airport facts

Venice Marco Polo Airport is located in Venice at an elevation of 2.1 meters or 7 feet.

Currently, Speedy Airlines serves 4 flights to and from Venice Marco Polo Airport.

Detailed airport info

Route map

Weather

Current weather

METAR

METAR

Metar data retrieved Sunday, 21 July 2024 at 19:55 UTC

LIPZ 211920Z 16005KT 9999 SCT070 28/21 Q1008 NOSIG
Wind Temperature
5 kt 28c